sensor_id;sensor_type;location;lat;lon;timestamp;pressure;altitude;pressure_sealevel;temperature;humidity
67818;BME280;54614;47.576;7.524;2023-05-10T00:01:08;98096.84;;;27.00;41.06
67818;BME280;54614;47.576;7.524;2023-05-10T00:03:34;98103.41;;;27.04;40.92
67818;BME280;54614;47.576;7.524;2023-05-10T00:06:00;98101.28;;;27.06;40.92
67818;BME280;54614;47.576;7.524;2023-05-10T00:08:25;98098.00;;;27.04;41.03
67818;BME280;54614;47.576;7.524;2023-05-10T00:10:52;98095.22;;;26.99;40.87
67818;BME280;54614;47.576;7.524;2023-05-10T00:13:18;98099.56;;;27.00;40.88
67818;BME280;54614;47.576;7.524;2023-05-10T00:15:44;98094.50;;;27.04;41.00
67818;BME280;54614;47.576;7.524;2023-05-10T00:18:10;98096.38;;;27.03;41.00
67818;BME280;54614;47.576;7.524;2023-05-10T00:20:36;98089.56;;;27.01;40.92
67818;BME280;54614;47.576;7.524;2023-05-10T00:23:01;98086.97;;;27.06;40.85
67818;BME280;54614;47.576;7.524;2023-05-10T00:25:27;98081.47;;;27.01;40.89
67818;BME280;54614;47.576;7.524;2023-05-10T00:27:53;98081.25;;;27.02;41.00
67818;BME280;54614;47.576;7.524;2023-05-10T00:30:20;98076.06;;;27.01;40.90
67818;BME280;54614;47.576;7.524;2023-05-10T00:32:46;98077.38;;;26.98;40.87
67818;BME280;54614;47.576;7.524;2023-05-10T00:35:13;98079.84;;;27.00;40.93
67818;BME280;54614;47.576;7.524;2023-05-10T00:37:39;98075.25;;;27.00;40.99
67818;BME280;54614;47.576;7.524;2023-05-10T00:40:06;98075.03;;;27.02;40.79
67818;BME280;54614;47.576;7.524;2023-05-10T00:42:32;98078.31;;;27.04;40.82
67818;BME280;54614;47.576;7.524;2023-05-10T00:45:01;98074.44;;;27.00;40.75
67818;BME280;54614;47.576;7.524;2023-05-10T00:47:27;98080.66;;;27.00;40.61
67818;BME280;54614;47.576;7.524;2023-05-10T00:49:54;98083.13;;;27.02;40.88
67818;BME280;54614;47.576;7.524;2023-05-10T00:52:21;98082.53;;;27.00;41.01
67818;BME280;54614;47.576;7.524;2023-05-10T00:54:51;98091.22;;;27.02;40.77
67818;BME280;54614;47.576;7.524;2023-05-10T00:57:17;98095.22;;;26.99;40.88
67818;BME280;54614;47.576;7.524;2023-05-10T00:59:43;98094.97;;;27.01;40.89
67818;BME280;54614;47.576;7.524;2023-05-10T01:02:09;98104.13;;;27.00;40.89
67818;BME280;54614;47.576;7.524;2023-05-10T01:04:37;98107.66;;;27.00;40.76
67818;BME280;54614;47.576;7.524;2023-05-10T01:07:03;98112.81;;;27.02;40.77
67818;BME280;54614;47.576;7.524;2023-05-10T01:09:29;98120.91;;;27.02;40.78
67818;BME280;54614;47.576;7.524;2023-05-10T01:11:56;98103.31;;;26.99;40.92
67818;BME280;54614;47.576;7.524;2023-05-10T01:14:22;98112.47;;;26.98;41.03
67818;BME280;54614;47.576;7.524;2023-05-10T01:16:49;98114.69;;;27.01;40.98
67818;BME280;54614;47.576;7.524;2023-05-10T01:19:29;98099.31;;;27.02;40.78
67818;BME280;54614;47.576;7.524;2023-05-10T01:25:09;98104.13;;;27.00;40.74
67818;BME280;54614;47.576;7.524;2023-05-10T01:28:08;98110.34;;;27.00;40.90
67818;BME280;54614;47.576;7.524;2023-05-10T01:31:17;98109.88;;;27.03;40.71
67818;BME280;54614;47.576;7.524;2023-05-10T01:36:48;98115.97;;;26.99;40.83
67818;BME280;54614;47.576;7.524;2023-05-10T01:39:35;98128.19;;;27.01;40.65
67818;BME280;54614;47.576;7.524;2023-05-10T01:42:19;98118.69;;;26.99;40.92
67818;BME280;54614;47.576;7.524;2023-05-10T01:45:18;98116.81;;;26.99;40.66
67818;BME280;54614;47.576;7.524;2023-05-10T01:47:57;98114.34;;;26.98;40.63
67818;BME280;54614;47.576;7.524;2023-05-10T01:50:29;98116.81;;;26.99;40.87
67818;BME280;54614;47.576;7.524;2023-05-10T01:52:58;98122.66;;;26.96;40.82
67818;BME280;54614;47.576;7.524;2023-05-10T01:55:35;98123.94;;;26.93;40.53
67818;BME280;54614;47.576;7.524;2023-05-10T01:58:11;98119.75;;;26.98;40.70
67818;BME280;54614;47.576;7.524;2023-05-10T02:00:45;98126.78;;;26.99;40.78
67818;BME280;54614;47.576;7.524;2023-05-10T02:03:14;98128.19;;;27.01;40.67
67818;BME280;54614;47.576;7.524;2023-05-10T02:05:44;98128.03;;;26.96;40.96
67818;BME280;54614;47.576;7.524;2023-05-10T02:08:13;98131.34;;;26.98;40.52
67818;BME280;54614;47.576;7.524;2023-05-10T02:10:40;98132.41;;;26.97;40.72
67818;BME280;54614;47.576;7.524;2023-05-10T02:13:10;98133.44;;;26.96;40.85
67818;BME280;54614;47.576;7.524;2023-05-10T02:15:38;98134.63;;;27.00;40.55
67818;BME280;54614;47.576;7.524;2023-05-10T02:18:05;98132.41;;;26.97;40.54
67818;BME280;54614;47.576;7.524;2023-05-10T02:20:33;98131.34;;;26.98;40.83
67818;BME280;54614;47.576;7.524;2023-05-10T02:23:01;98130.06;;;27.01;40.54
67818;BME280;54614;47.576;7.524;2023-05-10T02:25:29;98128.19;;;27.01;40.55
67818;BME280;54614;47.576;7.524;2023-05-10T02:28:00;98128.88;;;26.96;40.73
67818;BME280;54614;47.576;7.524;2023-05-10T02:30:28;98128.88;;;26.96;40.83
67818;BME280;54614;47.576;7.524;2023-05-10T02:32:57;98130.75;;;26.96;40.79
67818;BME280;54614;47.576;7.524;2023-05-10T02:35:26;98130.53;;;26.98;40.50
67818;BME280;54614;47.576;7.524;2023-05-10T02:37:54;98139.22;;;27.00;40.72
67818;BME280;54614;47.576;7.524;2023-05-10T02:40:22;98129.09;;;26.95;40.67
67818;BME280;54614;47.576;7.524;2023-05-10T02:42:51;98130.41;;;26.92;40.83
67818;BME280;54614;47.576;7.524;2023-05-10T02:45:24;98139.66;;;26.96;40.74
67818;BME280;54614;47.576;7.524;2023-05-10T02:47:52;98146.72;;;26.98;40.60
67818;BME280;54614;47.576;7.524;2023-05-10T02:50:19;98138.50;;;26.92;40.62
67818;BME280;54614;47.576;7.524;2023-05-10T02:52:51;98146.34;;;26.94;40.73
67818;BME280;54614;47.576;7.524;2023-05-10T02:55:22;98142.34;;;26.96;40.45
67818;BME280;54614;47.576;7.524;2023-05-10T02:58:00;98138.03;;;26.95;40.58
67818;BME280;54614;47.576;7.524;2023-05-10T03:00:26;98132.63;;;26.95;40.60
67818;BME280;54614;47.576;7.524;2023-05-10T03:02:53;98136.84;;;26.91;40.58
67818;BME280;54614;47.576;7.524;2023-05-10T03:05:20;98130.88;;;26.89;40.72
67818;BME280;54614;47.576;7.524;2023-05-10T03:07:46;98126.88;;;26.92;40.52
67818;BME280;54614;47.576;7.524;2023-05-10T03:10:12;98135.78;;;26.92;40.43
67818;BME280;54614;47.576;7.524;2023-05-10T03:13:13;98134.06;;;26.98;40.47
67818;BME280;54614;47.576;7.524;2023-05-10T03:15:58;98140.63;;;26.90;40.45
67818;BME280;54614;47.576;7.524;2023-05-10T03:18:53;98145.06;;;26.96;40.39
67818;BME280;54614;47.576;7.524;2023-05-10T03:21:25;98147.41;;;26.93;40.55
67818;BME280;54614;47.576;7.524;2023-05-10T03:24:10;98147.41;;;26.93;40.47
67818;BME280;54614;47.576;7.524;2023-05-10T03:26:39;98145.44;;;26.88;40.56
67818;BME280;54614;47.576;7.524;2023-05-10T03:29:07;98153.88;;;26.92;40.79
67818;BME280;54614;47.576;7.524;2023-05-10T03:31:34;98145.91;;;26.85;40.59
67818;BME280;54614;47.576;7.524;2023-05-10T03:34:00;98148.47;;;26.92;40.50
67818;BME280;54614;47.576;7.524;2023-05-10T03:36:26;98146.84;;;26.91;40.54
67818;BME280;54614;47.576;7.524;2023-05-10T03:38:51;98151.88;;;26.99;40.39
67818;BME280;54614;47.576;7.524;2023-05-10T03:41:17;98148.59;;;26.97;40.39
67818;BME280;54614;47.576;7.524;2023-05-10T03:43:43;98146.13;;;26.95;40.41
67818;BME280;54614;47.576;7.524;2023-05-10T03:46:09;98145.91;;;26.97;40.35
67818;BME280;54614;47.576;7.524;2023-05-10T03:48:35;98134.50;;;26.95;40.43
67818;BME280;54614;47.576;7.524;2023-05-10T03:51:00;98145.91;;;26.97;40.24
67818;BME280;54614;47.576;7.524;2023-05-10T03:53:26;98142.50;;;26.90;40.64
67818;BME280;54614;47.576;7.524;2023-05-10T03:55:52;98131.56;;;26.96;40.50
67818;BME280;54614;47.576;7.524;2023-05-10T03:58:18;98128.03;;;26.96;40.37
67818;BME280;54614;47.576;7.524;2023-05-10T04:00:44;98133.25;;;26.98;40.28
67818;BME280;54614;47.576;7.524;2023-05-10T04:03:14;98130.53;;;26.98;40.25
67818;BME280;54614;47.576;7.524;2023-05-10T04:05:40;98137.19;;;26.95;40.46
67818;BME280;54614;47.576;7.524;2023-05-10T04:08:06;98141.91;;;27.00;40.10
67818;BME280;54614;47.576;7.524;2023-05-10T04:10:32;98147.56;;;26.98;40.43
67818;BME280;54614;47.576;7.524;2023-05-10T04:12:58;98149.19;;;26.99;40.31
67818;BME280;54614;47.576;7.524;2023-05-10T04:15:24;98155.41;;;27.00;40.17
67818;BME280;54614;47.576;7.524;2023-05-10T04:17:49;98156.81;;;27.02;40.32
67818;BME280;54614;47.576;7.524;2023-05-10T04:20:16;98176.63;;;26.96;40.41
67818;BME280;54614;47.576;7.524;2023-05-10T04:22:42;98168.78;;;26.94;40.41
67818;BME280;54614;47.576;7.524;2023-05-10T04:25:08;98175.47;;;26.92;40.51
67818;BME280;54614;47.576;7.524;2023-05-10T04:27:34;98187.44;;;26.96;40.63
67818;BME280;54614;47.576;7.524;2023-05-10T04:30:00;98184.53;;;26.98;40.56
67818;BME280;54614;47.576;7.524;2023-05-10T04:32:26;98166.66;;;26.96;40.14
67818;BME280;54614;47.576;7.524;2023-05-10T04:34:52;98173.81;;;26.91;40.44
67818;BME280;54614;47.576;7.524;2023-05-10T04:37:18;98178.97;;;26.92;40.23
67818;BME280;54614;47.576;7.524;2023-05-10T04:39:44;98178.50;;;26.95;40.24
67818;BME280;54614;47.576;7.524;2023-05-10T04:42:10;98178.75;;;26.94;40.19
67818;BME280;54614;47.576;7.524;2023-05-10T04:44:36;98184.25;;;26.87;40.33
67818;BME280;54614;47.576;7.524;2023-05-10T04:47:02;98178.88;;;26.87;40.22
67818;BME280;54614;47.576;7.524;2023-05-10T04:49:29;98185.44;;;26.91;40.18
67818;BME280;54614;47.576;7.524;2023-05-10T04:51:55;98182.03;;;26.84;40.29
67818;BME280;54614;47.576;7.524;2023-05-10T04:54:21;98180.16;;;26.85;40.12
67818;BME280;54614;47.576;7.524;2023-05-10T04:56:47;98181.44;;;26.82;40.50
67818;BME280;54614;47.576;7.524;2023-05-10T04:59:13;98183.09;;;26.83;40.42
67818;BME280;54614;47.576;7.524;2023-05-10T05:01:39;98188.16;;;26.80;40.43
67818;BME280;54614;47.576;7.524;2023-05-10T05:04:05;98190.97;;;26.85;40.28
67818;BME280;54614;47.576;7.524;2023-05-10T05:06:32;98193.06;;;26.83;40.44
67818;BME280;54614;47.576;7.524;2023-05-10T05:08:58;98199.53;;;26.82;40.40
67818;BME280;54614;47.576;7.524;2023-05-10T05:11:23;98206.56;;;26.83;40.35
67818;BME280;54614;47.576;7.524;2023-05-10T05:13:50;98211.72;;;26.84;40.47
67818;BME280;54614;47.576;7.524;2023-05-10T05:16:16;98214.66;;;26.83;40.29
67818;BME280;54614;47.576;7.524;2023-05-10T05:18:42;98211.25;;;26.87;40.39
67818;BME280;54614;47.576;7.524;2023-05-10T05:21:18;98210.78;;;26.90;40.34
67818;BME280;54614;47.576;7.524;2023-05-10T05:23:44;98220.41;;;26.86;40.31
67818;BME280;54614;47.576;7.524;2023-05-10T05:26:11;98218.53;;;26.87;40.21
67818;BME280;54614;47.576;7.524;2023-05-10T05:28:37;98215.81;;;26.87;40.13
67818;BME280;54614;47.576;7.524;2023-05-10T05:31:06;98225.91;;;26.91;40.14
67818;BME280;54614;47.576;7.524;2023-05-10T05:33:33;98217.72;;;26.86;40.18
67818;BME280;54614;47.576;7.524;2023-05-10T05:36:04;98235.53;;;26.87;40.31
67818;BME280;54614;47.576;7.524;2023-05-10T05:38:30;98229.78;;;26.95;40.30
67818;BME280;54614;47.576;7.524;2023-05-10T05:40:56;98229.91;;;26.89;40.46
67818;BME280;54614;47.576;7.524;2023-05-10T05:43:22;98237.53;;;26.92;40.33
67818;BME280;54614;47.576;7.524;2023-05-10T05:45:49;98242.34;;;26.90;40.19
67818;BME280;54614;47.576;7.524;2023-05-10T05:48:14;98242.59;;;26.88;40.98
67818;BME280;54614;47.576;7.524;2023-05-10T05:50:40;98240.84;;;27.06;40.16
67818;BME280;54614;47.576;7.524;2023-05-10T05:53:06;98250.81;;;27.05;40.17
67818;BME280;54614;47.576;7.524;2023-05-10T05:55:32;98246.25;;;27.06;40.25
67818;BME280;54614;47.576;7.524;2023-05-10T05:57:58;98246.47;;;27.04;40.14
67818;BME280;54614;47.576;7.524;2023-05-10T06:00:24;98257.63;;;27.08;40.21
67818;BME280;54614;47.576;7.524;2023-05-10T06:02:50;98255.84;;;27.13;40.13
67818;BME280;54614;47.576;7.524;2023-05-10T06:05:16;98257.16;;;27.11;39.95
67818;BME280;54614;47.576;7.524;2023-05-10T06:07:41;98261.50;;;27.12;39.99
67818;BME280;54614;47.576;7.524;2023-05-10T06:10:08;98270.66;;;27.11;40.20
67818;BME280;54614;47.576;7.524;2023-05-10T06:12:35;98271.38;;;27.06;40.45
67818;BME280;54614;47.576;7.524;2023-05-10T06:15:01;98274.88;;;27.07;40.13
67818;BME280;54614;47.576;7.524;2023-05-10T06:17:27;98279.47;;;27.06;40.45
67818;BME280;54614;47.576;7.524;2023-05-10T06:19:54;98283.09;;;27.12;40.76
67818;BME280;54614;47.576;7.524;2023-05-10T06:22:20;98289.09;;;27.14;40.75
67818;BME280;54614;47.576;7.524;2023-05-10T06:24:48;98288.97;;;27.20;40.70
67818;BME280;54614;47.576;7.524;2023-05-10T06:27:14;98298.47;;;27.11;41.24
67818;BME280;54614;47.576;7.524;2023-05-10T06:29:40;98288.72;;;26.99;41.61
67818;BME280;54614;47.576;7.524;2023-05-10T06:32:06;98293.72;;;26.72;42.35
67818;BME280;54614;47.576;7.524;2023-05-10T06:34:32;98299.97;;;26.95;41.48
67818;BME280;54614;47.576;7.524;2023-05-10T06:36:57;98293.19;;;27.16;41.24
67818;BME280;54614;47.576;7.524;2023-05-10T06:39:23;98308.69;;;27.21;40.80
67818;BME280;54614;47.576;7.524;2023-05-10T06:41:49;98305.28;;;27.14;40.66
67818;BME280;54614;47.576;7.524;2023-05-10T06:44:15;98304.34;;;27.08;41.38
67818;BME280;54614;47.576;7.524;2023-05-10T06:46:41;98302.91;;;26.94;41.15
67818;BME280;54614;47.576;7.524;2023-05-10T06:49:07;98304.66;;;26.88;41.19
67818;BME280;54614;47.576;7.524;2023-05-10T06:51:33;98303.72;;;26.83;41.02
67818;BME280;54614;47.576;7.524;2023-05-10T06:53:59;98303.94;;;26.93;40.29
67818;BME280;54614;47.576;7.524;2023-05-10T06:56:25;98300.06;;;26.89;39.96
67818;BME280;54614;47.576;7.524;2023-05-10T06:58:51;98299.38;;;26.82;39.82
67818;BME280;54614;47.576;7.524;2023-05-10T07:01:17;98308.16;;;26.77;40.13
67818;BME280;54614;47.576;7.524;2023-05-10T07:03:43;98307.22;;;26.83;39.88
67818;BME280;54614;47.576;7.524;2023-05-10T07:06:08;98318.50;;;26.80;40.25
67818;BME280;54614;47.576;7.524;2023-05-10T07:08:34;98311.19;;;26.69;40.53
67818;BME280;54614;47.576;7.524;2023-05-10T07:11:05;98305.00;;;26.80;40.18
67818;BME280;54614;47.576;7.524;2023-05-10T07:13:34;98307.72;;;26.92;39.67
67818;BME280;54614;47.576;7.524;2023-05-10T07:16:01;98313.38;;;27.02;39.04
67818;BME280;54614;47.576;7.524;2023-05-10T07:18:28;98313.25;;;27.09;39.18
67818;BME280;54614;47.576;7.524;2023-05-10T07:20:54;98302.22;;;27.10;38.86
67818;BME280;54614;47.576;7.524;2023-05-10T07:23:20;98303.28;;;27.09;39.33
67818;BME280;54614;47.576;7.524;2023-05-10T07:25:51;98314.91;;;27.10;39.05
67818;BME280;54614;47.576;7.524;2023-05-10T07:28:20;98324.19;;;27.02;40.55
67818;BME280;54614;47.576;7.524;2023-05-10T07:30:46;98318.03;;;26.95;40.87
67818;BME280;54614;47.576;7.524;2023-05-10T07:33:13;98324.41;;;27.01;40.08
67818;BME280;54614;47.576;7.524;2023-05-10T07:35:40;98329.47;;;27.09;38.95
67818;BME280;54614;47.576;7.524;2023-05-10T07:38:05;98328.41;;;27.10;39.32
67818;BME280;54614;47.576;7.524;2023-05-10T07:40:32;98324.28;;;27.07;39.11
67818;BME280;54614;47.576;7.524;2023-05-10T07:42:58;98317.84;;;27.08;39.32
67818;BME280;54614;47.576;7.524;2023-05-10T07:45:25;98326.28;;;27.00;39.39
67818;BME280;54614;47.576;7.524;2023-05-10T07:47:51;98322.59;;;26.94;39.22
67818;BME280;54614;47.576;7.524;2023-05-10T07:50:16;98326.63;;;27.04;39.66
67818;BME280;54614;47.576;7.524;2023-05-10T07:52:42;98320.53;;;27.08;39.13
67818;BME280;54614;47.576;7.524;2023-05-10T07:55:09;98320.78;;;27.07;39.44
67818;BME280;54614;47.576;7.524;2023-05-10T07:57:34;98325.72;;;27.10;39.21
67818;BME280;54614;47.576;7.524;2023-05-10T08:00:01;98332.50;;;27.12;39.36
67818;BME280;54614;47.576;7.524;2023-05-10T08:02:27;98332.88;;;27.16;39.13
67818;BME280;54614;47.576;7.524;2023-05-10T08:04:52;98333.91;;;27.15;39.32
67818;BME280;54614;47.576;7.524;2023-05-10T08:07:18;98334.16;;;27.13;39.57
67818;BME280;54614;47.576;7.524;2023-05-10T08:09:44;98336.63;;;27.15;39.29
67818;BME280;54614;47.576;7.524;2023-05-10T08:12:10;98339.91;;;27.17;39.18
67818;BME280;54614;47.576;7.524;2023-05-10T08:14:36;98342.38;;;27.18;39.19
67818;BME280;54614;47.576;7.524;2023-05-10T08:17:04;98339.91;;;27.17;39.19
67818;BME280;54614;47.576;7.524;2023-05-10T08:19:30;98338.28;;;27.16;39.25
67818;BME280;54614;47.576;7.524;2023-05-10T08:21:56;98329.59;;;27.14;38.96
67818;BME280;54614;47.576;7.524;2023-05-10T08:24:22;98334.75;;;27.15;38.92
67818;BME280;54614;47.576;7.524;2023-05-10T08:26:48;98332.75;;;27.22;38.85
67818;BME280;54614;47.576;7.524;2023-05-10T08:29:15;98334.97;;;27.25;39.29
67818;BME280;54614;47.576;7.524;2023-05-10T08:31:41;98334.97;;;27.25;39.06
67818;BME280;54614;47.576;7.524;2023-05-10T08:34:07;98344.72;;;27.26;39.46
67818;BME280;54614;47.576;7.524;2023-05-10T08:36:32;98343.91;;;27.26;39.34
67818;BME280;54614;47.576;7.524;2023-05-10T08:38:59;98341.19;;;27.26;39.19
67818;BME280;54614;47.576;7.524;2023-05-10T08:41:25;98348.72;;;27.24;39.38
67818;BME280;54614;47.576;7.524;2023-05-10T08:43:54;98354.56;;;26.98;43.19
67818;BME280;54614;47.576;7.524;2023-05-10T08:46:22;98357.13;;;26.92;43.09
67818;BME280;54614;47.576;7.524;2023-05-10T08:48:51;98350.53;;;26.88;42.02
67818;BME280;54614;47.576;7.524;2023-05-10T08:51:22;98353.22;;;26.88;41.44
67818;BME280;54614;47.576;7.524;2023-05-10T08:53:48;98345.38;;;26.87;41.31
67818;BME280;54614;47.576;7.524;2023-05-10T08:56:16;98343.84;;;26.91;41.08
67818;BME280;54614;47.576;7.524;2023-05-10T08:58:43;98347.72;;;26.95;41.28
67818;BME280;54614;47.576;7.524;2023-05-10T09:01:10;98345.41;;;26.99;40.96
67818;BME280;54614;47.576;7.524;2023-05-10T09:03:41;98350.59;;;27.00;40.84
67818;BME280;54614;47.576;7.524;2023-05-10T09:06:07;98346.00;;;27.01;40.70
67818;BME280;54614;47.576;7.524;2023-05-10T09:08:34;98348.94;;;26.99;40.71
67818;BME280;54614;47.576;7.524;2023-05-10T09:11:01;98352.47;;;27.00;40.51
67818;BME280;54614;47.576;7.524;2023-05-10T09:13:28;98347.88;;;27.00;40.83
67818;BME280;54614;47.576;7.524;2023-05-10T09:15:54;98346.25;;;26.99;40.85
67818;BME280;54614;47.576;7.524;2023-05-10T09:18:20;98343.78;;;26.98;40.58
67818;BME280;54614;47.576;7.524;2023-05-10T09:20:45;98344.13;;;27.01;40.59
67818;BME280;54614;47.576;7.524;2023-05-10T09:23:11;98339.56;;;27.02;40.54
67818;BME280;54614;47.576;7.524;2023-05-10T09:25:38;98345.31;;;27.05;40.38
67818;BME280;54614;47.576;7.524;2023-05-10T09:28:07;98339.31;;;27.03;40.49
67818;BME280;54614;47.576;7.524;2023-05-10T09:30:35;98340.72;;;27.06;40.44
67818;BME280;54614;47.576;7.524;2023-05-10T09:33:01;98333.44;;;27.06;40.42
67818;BME280;54614;47.576;7.524;2023-05-10T09:35:31;98330.75;;;27.06;40.41
67818;BME280;54614;47.576;7.524;2023-05-10T09:38:02;98336.16;;;27.06;40.41
67818;BME280;54614;47.576;7.524;2023-05-10T09:40:29;98333.09;;;27.03;40.35
67818;BME280;54614;47.576;7.524;2023-05-10T09:42:59;98340.97;;;27.04;40.39
67818;BME280;54614;47.576;7.524;2023-05-10T09:45:32;98334.75;;;27.04;40.31
67818;BME280;54614;47.576;7.524;2023-05-10T09:47:59;98332.63;;;27.06;40.21
67818;BME280;54614;47.576;7.524;2023-05-10T09:50:26;98335.09;;;27.07;40.19
67818;BME280;54614;47.576;7.524;2023-05-10T09:55:37;98334.03;;;27.08;40.21
67818;BME280;54614;47.576;7.524;2023-05-10T09:58:03;98333.44;;;27.06;40.01
67818;BME280;54614;47.576;7.524;2023-05-10T10:00:45;98322.41;;;27.08;40.29
67818;BME280;54614;47.576;7.524;2023-05-10T10:03:19;98327.81;;;27.08;40.27
67818;BME280;54614;47.576;7.524;2023-05-10T10:05:48;98329.34;;;27.15;40.48
67818;BME280;54614;47.576;7.524;2023-05-10T10:08:15;98323.22;;;27.32;39.91
67818;BME280;54614;47.576;7.524;2023-05-10T10:10:41;98319.69;;;27.43;39.70
67818;BME280;54614;47.576;7.524;2023-05-10T10:13:09;98320.06;;;27.46;39.69
67818;BME280;54614;47.576;7.524;2023-05-10T10:15:35;98323.09;;;27.50;39.83
67818;BME280;54614;47.576;7.524;2023-05-10T10:18:02;98318.28;;;27.52;39.59
67818;BME280;54614;47.576;7.524;2023-05-10T10:20:29;98319.34;;;27.51;39.36
67818;BME280;54614;47.576;7.524;2023-05-10T10:22:55;98313.47;;;27.54;39.56
67818;BME280;54614;47.576;7.524;2023-05-10T10:25:21;98323.44;;;27.53;39.64
67818;BME280;54614;47.576;7.524;2023-05-10T10:30:37;98314.75;;;27.51;39.58
67818;BME280;54614;47.576;7.524;2023-05-10T10:33:29;98304.78;;;27.52;39.57
67818;BME280;54614;47.576;7.524;2023-05-10T10:36:00;98308.53;;;27.51;39.51
67818;BME280;54614;47.576;7.524;2023-05-10T10:38:57;98306.88;;;27.50;39.36
67818;BME280;54614;47.576;7.524;2023-05-10T10:41:33;98301.50;;;27.50;39.51
67818;BME280;54614;47.576;7.524;2023-05-10T10:52:36;98301.50;;;27.50;39.29
67818;BME280;54614;47.576;7.524;2023-05-10T10:55:22;98305.59;;;27.52;39.08
67818;BME280;54614;47.576;7.524;2023-05-10T10:57:53;98298.56;;;27.51;39.09
67818;BME280;54614;47.576;7.524;2023-05-10T11:00:31;98293.16;;;27.51;39.22
67818;BME280;54614;47.576;7.524;2023-05-10T11:03:10;98292.09;;;27.52;39.17
67818;BME280;54614;47.576;7.524;2023-05-10T11:05:49;98294.22;;;27.50;39.10
67818;BME280;54614;47.576;7.524;2023-05-10T11:08:31;98299.59;;;27.50;39.02
67818;BME280;54614;47.576;7.524;2023-05-10T11:13:46;98295.03;;;27.51;39.05
67818;BME280;54614;47.576;7.524;2023-05-10T11:18:56;98308.78;;;27.49;38.89
67818;BME280;54614;47.576;7.524;2023-05-10T11:21:22;98303.38;;;27.49;39.03
67818;BME280;54614;47.576;7.524;2023-05-10T11:23:52;98305.25;;;27.49;38.83
67818;BME280;54614;47.576;7.524;2023-05-10T11:26:25;98304.66;;;27.47;38.92
67818;BME280;54614;47.576;7.524;2023-05-10T11:28:53;98302.56;;;27.49;38.74
67818;BME280;54614;47.576;7.524;2023-05-10T11:31:22;98298.06;;;27.54;38.65
67818;BME280;54614;47.576;7.524;2023-05-10T11:33:51;98300.06;;;27.59;38.29
67818;BME280;54614;47.576;7.524;2023-05-10T11:36:28;98292.44;;;27.56;38.50
67818;BME280;54614;47.576;7.524;2023-05-10T11:38:56;98300.53;;;27.56;38.37
67818;BME280;54614;47.576;7.524;2023-05-10T11:41:23;98297.34;;;27.59;38.69
67818;BME280;54614;47.576;7.524;2023-05-10T11:43:52;98293.38;;;27.50;38.83
67818;BME280;54614;47.576;7.524;2023-05-10T11:46:21;98298.69;;;27.45;39.00
67818;BME280;54614;47.576;7.524;2023-05-10T11:48:57;98303.25;;;27.44;38.71
67818;BME280;54614;47.576;7.524;2023-05-10T11:51:25;98283.28;;;27.45;38.55
67818;BME280;54614;47.576;7.524;2023-05-10T11:53:53;98292.69;;;27.43;38.80
67818;BME280;54614;47.576;7.524;2023-05-10T11:56:20;98302.44;;;27.44;38.85
67818;BME280;54614;47.576;7.524;2023-05-10T11:58:58;98314.78;;;27.40;38.69
67818;BME280;54614;47.576;7.524;2023-05-10T12:01:27;98309.97;;;27.42;38.64
67818;BME280;54614;47.576;7.524;2023-05-10T12:03:56;98322.63;;;27.41;38.62
67818;BME280;54614;47.576;7.524;2023-05-10T12:06:37;98311.38;;;27.44;38.64
67818;BME280;54614;47.576;7.524;2023-05-10T12:09:07;98313.94;;;27.39;38.89
67818;BME280;54614;47.576;7.524;2023-05-10T12:11:38;98302.69;;;27.42;38.87
67818;BME280;54614;47.576;7.524;2023-05-10T12:14:05;98308.91;;;27.43;38.84
67818;BME280;54614;47.576;7.524;2023-05-10T12:16:32;98309.72;;;27.43;39.02
67818;BME280;54614;47.576;7.524;2023-05-10T12:19:00;98311.94;;;27.58;38.47
67818;BME280;54614;47.576;7.524;2023-05-10T12:21:29;98314.03;;;27.56;38.56
67818;BME280;54614;47.576;7.524;2023-05-10T12:24:02;98315.34;;;27.53;38.61
67818;BME280;54614;47.576;7.524;2023-05-10T12:26:29;98316.53;;;27.46;38.73
67818;BME280;54614;47.576;7.524;2023-05-10T12:29:12;98304.66;;;27.47;38.71
67818;BME280;54614;47.576;7.524;2023-05-10T12:31:59;98310.66;;;27.49;38.81
67818;BME280;54614;47.576;7.524;2023-05-10T12:34:32;98310.75;;;27.54;38.49
67818;BME280;54614;47.576;7.524;2023-05-10T12:36:59;98309.59;;;27.50;38.81
67818;BME280;54614;47.576;7.524;2023-05-10T12:39:25;98312.06;;;27.51;38.78
67818;BME280;54614;47.576;7.524;2023-05-10T12:41:52;98314.19;;;27.49;38.95
67818;BME280;54614;47.576;7.524;2023-05-10T12:44:18;98313.22;;;27.55;38.95
67818;BME280;54614;47.576;7.524;2023-05-10T12:46:44;98310.78;;;27.66;38.24
67818;BME280;54614;47.576;7.524;2023-05-10T12:49:10;98310.78;;;27.66;38.41
67818;BME280;54614;47.576;7.524;2023-05-10T12:51:36;98319.69;;;27.54;38.96
67818;BME280;54614;47.576;7.524;2023-05-10T12:54:03;98312.53;;;27.48;38.70
67818;BME280;54614;47.576;7.524;2023-05-10T12:56:29;98316.06;;;27.49;38.57
67818;BME280;54614;47.576;7.524;2023-05-10T12:58:54;98314.41;;;27.48;38.86
67818;BME280;54614;47.576;7.524;2023-05-10T13:01:20;98312.88;;;27.52;38.82
67818;BME280;54614;47.576;7.524;2023-05-10T13:03:46;98313.94;;;27.51;38.89
67818;BME280;54614;47.576;7.524;2023-05-10T13:06:13;98309.84;;;27.48;38.87
67818;BME280;54614;47.576;7.524;2023-05-10T13:08:39;98312.28;;;27.50;38.96
67818;BME280;54614;47.576;7.524;2023-05-10T13:11:05;98314.63;;;27.58;38.85
67818;BME280;54614;47.576;7.524;2023-05-10T13:13:31;98311.13;;;27.69;38.42
67818;BME280;54614;47.576;7.524;2023-05-10T13:15:57;98317.72;;;27.62;38.87
67818;BME280;54614;47.576;7.524;2023-05-10T13:18:23;98317.56;;;27.56;38.64
67818;BME280;54614;47.576;7.524;2023-05-10T13:20:49;98316.28;;;27.47;38.88
67818;BME280;54614;47.576;7.524;2023-05-10T13:23:15;98319.22;;;27.46;38.80
67818;BME280;54614;47.576;7.524;2023-05-10T13:25:41;98312.66;;;27.53;38.72
67818;BME280;54614;47.576;7.524;2023-05-10T13:28:07;98310.75;;;27.54;38.80
67818;BME280;54614;47.576;7.524;2023-05-10T13:30:32;98310.88;;;27.59;38.66
67818;BME280;54614;47.576;7.524;2023-05-10T13:32:58;98303.97;;;27.63;38.75